• Join FlightAware (Why Join?)
  • Login
  • US Flag 
02:25PM EDT


 

Airport Tracker/Info


-or-


 

Live Flight TrackerFlight Track Log ✈ UPS2844 ✈ 11-Jul-2013 ✈ KSDF - KSLC

Flight Track Log - Related Links

Times and Time Zones

All times are in EDT time to prevent confusion due to time zone crossing. See the UPS2844 flight status page for this flight to view local times or setup timezone preferences in your user account.

Time Position Orientation Groundspeed Altitude Reporting Facility
EDT Latitude Longitude Course Direction KTS MPH feet Rate Location/Type
04:19PM 38.1710 -85.7400 289° West 23 26  Level FlightAware
04:19PM 38.1710 -85.7410 270° West 23 26 120 Level FlightAware
04:19PM 38.1710 -85.7420 270° West 26 30 120 Level FlightAware
04:20PM 38.1680 -85.7410 165° South 17 20 180 Level FlightAware
04:20PM 38.1660 -85.7400 159° South 22 25 180 Level FlightAware
04:23PM 38.2401 -86.0782 286° West  Level Estimated
04:24PM 38.2724 -86.2277 285° West  Level Estimated
04:25PM 38.3046 -86.3772 285° West  Level Estimated
04:25PM 38.1850 -85.7480 285° West 171 197 1,100  Level FlightAware
04:25PM 38.2080 -85.7570 343° North 177 204 2,500 2,220 Climbing FlightAware
04:26PM 38.2240 -85.7650 339° North 203 234 2,900 1,140 Climbing FlightAware
04:26PM 38.2370 -85.7750 329° Northwest 225 259 3,200 1,620 Climbing FlightAware
04:27PM 38.2630 -85.7970 326° Northwest 258 297 4,100 2,400 Climbing FlightAware
04:27PM 38.2730 -85.8120 310° West 262 302 4,800 3,000 Climbing FlightAware
04:27PM 38.2780 -85.8350 285° West 270 311 5,500 3,000 Climbing FlightAware
04:28PM 38.2710 -85.8910 261° West 280 322 7,400 3,120 Climbing FlightAware
04:28PM 38.2590 -85.9090 230° Southwest 284 327 8,100 3,120 Climbing FlightAware
04:28PM 38.2300 -85.9410 221° Southwest 291 335 9,600 2,340 Climbing FlightAware
04:29PM 38.1890 -85.9860 221° Southwest 325 374 10,800 1,500 Climbing FlightAware
04:30PM 38.1410 -86.0380 220° Southwest 371 427 11,600 1,380 Climbing FlightAware
04:30PM 38.1090 -86.0910 233° Southwest 384 442 12,400 1,980 Climbing FlightAware
04:30PM 38.1030 -86.1200 255° West 382 440 13,000 2,580 Climbing FlightAware
04:31PM 38.1120 -86.2200 277° West 386 444 14,900 2,460 Climbing FlightAware
04:32PM 38.1240 -86.3130 279° West 393 452 16,600 2,400 Climbing FlightAware
04:32PM 38.1350 -86.4050 279° West 397 457 18,200 2,280 Climbing FlightAware
04:33PM 38.1440 -86.4860 278° West 401 461 19,500 1,080 Climbing FlightAware
04:34PM 38.1540 -86.5800 278° West 402 463 19,700 120 Climbing FlightAware
04:34PM 38.1620 -86.6510 278° West 402 463 19,700 2,880 Level FlightAware
04:35PM 38.1780 -86.7890 278° West 420 483 23,600 3,480 Climbing FlightAware
04:36PM 38.1900 -86.8920 278° West 426 490 24,700 1,560 Climbing FlightAware
04:36PM 38.2010 -86.9890 278° West 431 496 25,700 1,800 Climbing FlightAware
04:37PM 38.2130 -87.1050 278° West 424 488 27,300 1,860 Climbing FlightAware
04:38PM 38.2230 -87.1950 278° West 423 487 28,300 1,680 Climbing FlightAware
04:39PM 38.2330 -87.2920 278° West 419 482 29,500 1,620 Climbing FlightAware
04:39PM 38.2450 -87.4010 278° West 417 480 30,600 1,380 Climbing FlightAware
04:40PM 38.2530 -87.4780 278° West 415 478 31,300 1,080 Climbing FlightAware
04:41PM 38.2640 -87.5800 278° West 417 480 32,000 480 Climbing FlightAware
04:41PM 38.2750 -87.6810 278° West 418 481 32,000  Level FlightAware
04:42PM 38.2860 -87.7890 277° West 414 476 32,000  Level FlightAware
04:43PM 38.2960 -87.8810 278° West 413 475 32,000  Level FlightAware
04:43PM 38.3060 -87.9870 277° West 414 476 32,000  Level FlightAware
04:44PM 38.3170 -88.0940 277° West 414 476 32,000  Level FlightAware
04:45PM 38.3260 -88.1790 278° West 414 476 32,000  Level FlightAware
04:45PM 38.3360 -88.2800 277° West 414 476 32,000  Level FlightAware
04:46PM 38.3460 -88.3780 277° West 415 478 32,000  Level FlightAware
04:47PM 38.3550 -88.4690 277° West 415 478 32,000  Level FlightAware
04:47PM 38.3620 -88.5630 275° West 416 479 32,000  Level FlightAware
04:48PM 38.3670 -88.6690 273° West 416 479 32,000  Level FlightAware
04:49PM 38.3710 -88.7690 273° West 418 481 32,000  Level FlightAware
04:49PM 38.3750 -88.8500 274° West 419 482 32,000  Level FlightAware
04:50PM 38.3800 -88.9640 273° West 420 483 32,000  Level FlightAware
04:51PM 38.3850 -89.0610 274° West 420 483 32,000  Level FlightAware
04:51PM 38.3890 -89.1730 273° West 419 482 32,000  Level FlightAware
04:52PM 38.3930 -89.2670 273° West 419 482 32,000  Level FlightAware
04:53PM 38.3980 -89.3680 274° West 418 481 32,000  Level FlightAware
04:53PM 38.4010 -89.4420 273° West 418 481 32,000  Level FlightAware
04:54PM 38.4040 -89.5350 272° West 420 483 32,000  Level FlightAware
04:55PM 38.4070 -89.6340 272° West 420 483 32,000  Level FlightAware
04:56PM 38.4130 -89.7670 273° West 423 487 32,000  Level FlightAware
04:56PM 38.4180 -89.8890 273° West 423 487 32,000  Level FlightAware
04:57PM 38.4230 -90.0500 272° West 424 488 32,000  Level FlightAware
04:58PM 38.4250 -90.1290 272° West 424 488 32,000  Level FlightAware
04:59PM 38.4280 -90.2330 272° West 424 488 32,000  Level FlightAware
05:00PM 38.4300 -90.3100 272° West 424 488 32,000  Level FlightAware
05:00PM 38.4380 -90.4730 274° West 422 486 32,000  Level FlightAware
05:01PM 38.4410 -90.5580 273° West 422 486 32,000  Level FlightAware
05:01PM 38.4430 -90.6360 272° West 422 486 32,000  Level FlightAware
05:02PM 38.4460 -90.7630 272° West 422 486 32,000  Level FlightAware
05:03PM 38.4480 -90.8400 272° West 422 486 32,000  Level FlightAware
05:04PM 38.4510 -90.9180 273° West 422 486 32,000  Level FlightAware
05:04PM 38.4530 -91.0200 271° West 422 486 32,000  Level FlightAware
05:05PM 38.4550 -91.0920 272° West 422 486 32,000  Level FlightAware
05:06PM 38.4580 -91.1930 272° West 422 486 32,000  Level FlightAware
05:06PM 38.4600 -91.2700 272° West 422 486 32,000  Level FlightAware
05:07PM 38.4630 -91.3710 272° West 422 486 32,000  Level FlightAware
05:08PM 38.4650 -91.4500 272° West 422 486 32,000  Level FlightAware
05:09PM 38.4680 -91.5530 272° West 422 486 32,000  Level FlightAware
05:09PM 38.4700 -91.6300 272° West 422 486 32,000  Level FlightAware
05:10PM 38.4730 -91.7310 272° West 422 486 32,000 480 Level FlightAware
05:13PM 38.4850 -92.4290 271° West 420 483 34,000 480 Climbing FlightAware
05:14PM 38.4870 -92.5210 272° West 420 483 34,000  Level FlightAware
05:15PM 38.4890 -92.6480 271° West 422 486 34,000  Level FlightAware
05:16PM 38.4910 -92.8100 271° West 418 481 34,000  Level FlightAware
05:16PM 38.4920 -92.9020 271° West 420 483 34,000  Level FlightAware
05:17PM 38.4930 -92.9980 271° West 422 486 34,000  Level FlightAware
05:18PM 38.4940 -93.0970 271° West 424 488 34,000  Level FlightAware
05:18PM 38.4950 -93.2000 271° West 424 488 34,000  Level FlightAware
05:19PM 38.4960 -93.3060 271° West 422 486 34,000  Level FlightAware
05:20PM 38.4970 -93.4110 271° West 421 484 34,000  Level FlightAware
05:21PM 38.4980 -93.5160 271° West 421 484 34,000  Level FlightAware
05:21PM 38.4980 -93.6260 270° West 424 488 34,000  Level FlightAware
05:22PM 38.4990 -93.7330 271° West 428 493 34,000  Level FlightAware
05:23PM 38.4990 -93.8320 270° West 426 490 34,000  Level FlightAware
05:23PM 38.5000 -93.9360 271° West 427 491 34,000  Level FlightAware
05:24PM 38.5050 -94.0390 274° West 424 488 34,000  Level FlightAware
05:25PM 38.5190 -94.1470 279° West 424 488 34,000  Level FlightAware
05:25PM 38.5330 -94.2490 280° West 425 489 34,000  Level FlightAware
05:26PM 38.5375 -94.2843 279° West 425 489 34,000  Level FlightAware ADS-B
05:26PM 38.5477 -94.3610 280° West 426 490 34,000  Level FlightAware ADS-B
05:27PM 38.5575 -94.4371 279° West 426 490 34,000  Level FlightAware ADS-B
05:27PM 38.5674 -94.5134 279° West 427 491 34,000  Level FlightAware ADS-B
05:28PM 38.5773 -94.5898 279° West 428 493 34,000  Level FlightAware ADS-B
05:28PM 38.5874 -94.6685 279° West 429 494 34,000  Level FlightAware ADS-B
05:29PM 38.5970 -94.7437 279° West 430 495 34,000  Level FlightAware ADS-B
05:29PM 38.6066 -94.8197 279° West 428 493 34,000  Level FlightAware ADS-B
05:30PM 38.6162 -94.8959 279° West 428 493 34,000  Level FlightAware ADS-B
05:30PM 38.6250 -94.9670 279° West 428 493 34,000  Level FlightAware
05:31PM 38.6380 -95.0710 279° West 428 493 34,000  Level FlightAware
05:32PM 38.6500 -95.1650 279° West 429 494 34,000  Level FlightAware
05:32PM 38.6630 -95.2760 279° West 430 495 34,000  Level FlightAware
05:33PM 38.6770 -95.3880 279° West 433 498 34,000  Level FlightAware
05:34PM 38.6900 -95.4910 279° West 434 499 34,000  Level FlightAware
05:34PM 38.7020 -95.5900 279° West 435 501 34,000  Level FlightAware
05:35PM 38.7127 -95.6834 278° West 435 501 34,000  Level FlightAware ADS-B
05:35PM 38.7217 -95.7602 279° West 435 501 34,000  Level FlightAware ADS-B
05:36PM 38.7309 -95.8380 279° West 436 502 34,000  Level FlightAware ADS-B
05:37PM 38.7400 -95.9170 278° West 435 501 34,000  Level FlightAware
05:37PM 38.7530 -96.0267 279° West 438 504 34,000  Level FlightAware ADS-B
05:38PM 38.7627 -96.1108 278° West 439 505 34,000  Level FlightAware ADS-B
05:38PM 38.7717 -96.1898 278° West 440 506 34,000  Level FlightAware ADS-B
05:39PM 38.7805 -96.2671 278° West 440 506 34,000  Level FlightAware ADS-B
05:39PM 38.7893 -96.3453 278° West 440 506 34,000  Level FlightAware ADS-B
05:40PM 38.7982 -96.4238 278° West 438 504 34,000  Level FlightAware ADS-B
05:40PM 38.8070 -96.5024 278° West 438 504 34,000  Level FlightAware ADS-B
05:41PM 38.8157 -96.5805 278° West 437 503 34,000  Level FlightAware ADS-B
05:41PM 38.8241 -96.6574 278° West 436 502 34,000  Level FlightAware ADS-B
05:42PM 38.8326 -96.7343 278° West 436 502 34,000  Level FlightAware ADS-B
05:42PM 38.8417 -96.8186 278° West 435 501 34,000  Level FlightAware ADS-B
05:43PM 38.8503 -96.8974 278° West 435 501 34,000  Level FlightAware ADS-B
05:44PM 38.8603 -96.9901 278° West 435 501 34,000  Level FlightAware ADS-B
05:44PM 38.8692 -97.0739 278° West 437 503 34,000  Level FlightAware ADS-B
05:45PM 38.8790 -97.1670 278° West 437 503 34,000  Level FlightAware
05:45PM 38.8900 -97.2730 278° West 438 504 34,000  Level FlightAware
05:46PM 38.9040 -97.4070 278° West 439 505 34,000  Level FlightAware
05:47PM 38.9140 -97.5010 278° West 440 506 34,000  Level FlightAware
05:47PM 38.9165 -97.5275 277° West 441 507 34,000  Level FlightAware ADS-B
05:48PM 38.9247 -97.6080 277° West 441 507 34,000  Level FlightAware ADS-B
05:48PM 38.9339 -97.6871 279° West 440 506 34,000  Level FlightAware ADS-B
05:49PM 38.9452 -97.7639 281° West 440 506 34,000  Level FlightAware ADS-B
05:49PM 38.9570 -97.8453 281° West 440 506 34,000  Level FlightAware ADS-B
05:50PM 38.9679 -97.9231 280° West 440 506 34,000  Level FlightAware ADS-B
05:50PM 38.9785 -97.9998 280° West 440 506 34,000  Level FlightAware ADS-B
05:51PM 38.9891 -98.0779 280° West 439 505 34,000  Level FlightAware ADS-B
05:51PM 38.9996 -98.1558 280° West 439 505 34,000  Level FlightAware ADS-B
05:52PM 39.0194 -98.3030 280° West 439 505 34,000  Level FlightAware ADS-B
05:53PM 39.0335 -98.4089 280° West 440 506 34,000  Level FlightAware ADS-B
05:54PM 39.0526 -98.5546 280° West 440 506 34,000  Level FlightAware ADS-B
05:54PM 39.0650 -98.6580 279° West 439 505 34,000  Level FlightAware
05:55PM 39.0780 -98.7630 279° West 439 505 34,000  Level FlightAware
05:56PM 39.0964 -98.8908 279° West 437 503 34,000  Level Kansas City Center
05:57PM 39.1175 -99.0439 280° West 435 501 34,000  Level Kansas City Center
05:58PM 39.1331 -99.1817 278° West 433 498 34,000  Level Denver Center
05:59PM 39.1517 -99.3300 279° West 439 505 34,000  Level Denver Center
06:00PM 39.1725 -99.5039 279° West 442 509 34,000  Level Denver Center
06:01PM 39.1903 -99.6519 279° West 439 505 34,000  Level Denver Center
06:02PM 39.2117 -99.8258 279° West 441 507 34,000  Level Denver Center
06:03PM 39.2297 -99.9756 279° West 443 510 34,000  Level Denver Center
06:04PM 39.2506 -100.1483 279° West 443 510 34,000  Level Denver Center
06:05PM 39.2664 -100.3003 278° West 446 513 34,000  Level Denver Center
06:06PM 39.2825 -100.4775 277° West 446 513 34,000  Level Denver Center
06:12PM 39.3591 -101.3440 277° West 437 503 34,000  Level FlightAware ADS-B
06:12PM 39.3667 -101.4340 276° West 436 502 34,000  Level FlightAware ADS-B
06:13PM 39.3734 -101.5140 276° West 439 505 34,000  Level FlightAware ADS-B
06:13PM 39.3807 -101.6020 276° West 442 509 34,000  Level FlightAware ADS-B
06:14PM 39.3876 -101.6880 276° West 440 506 34,000  Level FlightAware ADS-B
06:14PM 39.3953 -101.7670 277° West 437 503 34,000  Level FlightAware ADS-B
06:15PM 39.4048 -101.8450 279° West 434 499 34,000  Level FlightAware ADS-B
06:15PM 39.4141 -101.9220 279° West 434 499 34,000  Level FlightAware ADS-B
06:16PM 39.4232 -102.0000 279° West 435 501 34,000  Level FlightAware ADS-B
06:16PM 39.4321 -102.0790 278° West 435 501 34,000  Level FlightAware ADS-B
06:17PM 39.4408 -102.1570 278° West 435 501 34,000  Level FlightAware ADS-B
06:17PM 39.4496 -102.2370 278° West 437 503 34,000  Level FlightAware ADS-B
06:18PM 39.4585 -102.3160 278° West 436 502 34,000  Level FlightAware ADS-B
06:18PM 39.4669 -102.3930 278° West 436 502 34,000  Level FlightAware ADS-B
06:19PM 39.4755 -102.4710 278° West 437 503 34,000  Level FlightAware ADS-B
06:19PM 39.4840 -102.5500 278° West 438 504 34,000  Level FlightAware ADS-B
06:20PM 39.4931 -102.6330 278° West 439 505 34,000  Level FlightAware ADS-B
06:20PM 39.5014 -102.7120 278° West 440 506 34,000  Level FlightAware ADS-B
06:21PM 39.5099 -102.7910 278° West 441 507 34,000  Level FlightAware ADS-B
06:21PM 39.5182 -102.8700 278° West 440 506 34,000  Level FlightAware ADS-B
06:22PM 39.5266 -102.9500 278° West 436 502 34,000  Level FlightAware ADS-B
06:22PM 39.5350 -103.0300 278° West 434 499 34,000  Level FlightAware ADS-B
06:23PM 39.5430 -103.1080 278° West 434 499 34,000  Level FlightAware ADS-B
06:23PM 39.5511 -103.1860 278° West 437 503 34,000  Level FlightAware ADS-B
06:24PM 39.5592 -103.2650 278° West 440 506 34,000  Level FlightAware ADS-B
06:24PM 39.5672 -103.3440 278° West 440 506 34,000  Level FlightAware ADS-B
06:25PM 39.5753 -103.4240 278° West 437 503 34,000  Level FlightAware ADS-B
06:25PM 39.5831 -103.5010 278° West 436 502 34,000  Level FlightAware ADS-B
06:26PM 39.5908 -103.5790 277° West 437 503 34,000  Level FlightAware ADS-B
06:26PM 39.5988 -103.6600 277° West 439 505 34,000  Level FlightAware ADS-B
06:27PM 39.6066 -103.7390 277° West 440 506 34,000  Level FlightAware ADS-B
06:27PM 39.6144 -103.8190 277° West 442 509 34,000  Level FlightAware ADS-B
06:28PM 39.6221 -103.8990 277° West 444 511 34,000  Level FlightAware ADS-B
06:28PM 39.6299 -103.9800 277° West 444 511 34,000  Level FlightAware ADS-B
06:29PM 39.6375 -104.0610 277° West 440 506 34,000  Level FlightAware ADS-B
06:29PM 39.6451 -104.1410 277° West 436 502 34,000  Level FlightAware ADS-B
06:30PM 39.6526 -104.2200 277° West 433 498 34,000  Level FlightAware ADS-B
06:31PM 39.6598 -104.2980 277° West 433 498 34,000  Level FlightAware ADS-B
06:31PM 39.6672 -104.3770 277° West 433 498 34,000  Level FlightAware ADS-B
06:32PM 39.6747 -104.4580 277° West 439 505 34,000  Level FlightAware ADS-B
06:32PM 39.6818 -104.5370 277° West 440 506 34,000  Level FlightAware ADS-B
06:33PM 39.6891 -104.6190 277° West 437 503 34,000  Level FlightAware ADS-B
06:33PM 39.6939 -104.6660 278° West 434 499 34,000  Level FlightAware ADS-B
06:33PM 39.7041 -104.7440 280° West 432 497 34,000  Level FlightAware ADS-B
06:34PM 39.7146 -104.8200 280° West 432 497 34,000  Level FlightAware ADS-B
06:34PM 39.7249 -104.8990 280° West 437 503 34,000  Level FlightAware ADS-B
06:35PM 39.7348 -104.9770 279° West 438 504 34,000  Level FlightAware ADS-B
06:35PM 39.7451 -105.0590 279° West 437 503 34,000  Level FlightAware ADS-B
06:36PM 39.7567 -105.1520 279° West 436 502 34,000  Level FlightAware ADS-B
06:37PM 39.7664 -105.2310 279° West 436 502 34,000  Level FlightAware ADS-B
06:37PM 39.7760 -105.3100 279° West 436 502 34,000  Level FlightAware ADS-B
06:38PM 39.7856 -105.3870 279° West 434 499 34,000  Level FlightAware ADS-B
06:38PM 39.7950 -105.4650 279° West 434 499 34,000  Level FlightAware ADS-B
06:39PM 39.8046 -105.5440 279° West 433 498 34,000  Level FlightAware ADS-B
06:39PM 39.8141 -105.6230 279° West 434 499 34,000  Level FlightAware ADS-B
06:40PM 39.8235 -105.7010 279° West 434 499 34,000  Level FlightAware ADS-B
06:40PM 39.8330 -105.7800 279° West 436 502 34,000  Level FlightAware ADS-B
06:41PM 39.8422 -105.8580 279° West 434 499 34,000  Level FlightAware ADS-B
06:41PM 39.8516 -105.9390 279° West 434 499 34,000  Level FlightAware ADS-B
06:42PM 39.8630 -106.0360 279° West 437 503 34,000  Level FlightAware ADS-B
06:42PM 39.8721 -106.1130 279° West 437 503 34,000  Level FlightAware ADS-B
06:43PM 39.8815 -106.1960 278° West 434 499 34,000  Level FlightAware ADS-B
06:43PM 39.8913 -106.2800 279° West 432 497 34,000  Level FlightAware ADS-B
06:44PM 39.9003 -106.3590 278° West 429 494 34,000  Level FlightAware ADS-B
06:44PM 39.9091 -106.4370 278° West 433 498 34,000  Level FlightAware ADS-B
06:45PM 39.9180 -106.5150 278° West 434 499 34,000  Level FlightAware ADS-B
06:45PM 39.9268 -106.5940 278° West 432 497 34,000  Level FlightAware ADS-B
06:46PM 39.9359 -106.6760 278° West 427 491 34,000  Level FlightAware ADS-B
06:46PM 39.9443 -106.7540 278° West 426 490 34,000  Level FlightAware ADS-B
06:47PM 39.9570 -106.8660 278° West 428 493 34,000  Level FlightAware
06:48PM 39.9680 -106.9680 278° West 428 493 34,000  Level FlightAware
06:48PM 39.9790 -107.0690 278° West 429 494 34,000  Level FlightAware
06:49PM 39.9910 -107.1830 278° West 430 495 34,000  Level FlightAware
06:50PM 40.0000 -107.2660 278° West 430 495 34,000  Level FlightAware
06:51PM 40.0120 -107.3780 278° West 428 493 34,000  Level FlightAware
06:51PM 40.0220 -107.4800 277° West 426 490 34,000  Level FlightAware
06:52PM 40.0340 -107.5910 278° West 425 489 34,000  Level FlightAware
06:53PM 40.0450 -107.6980 278° West 425 489 34,000  Level FlightAware
06:53PM 40.0550 -107.8000 277° West 425 489 34,000  Level FlightAware
06:54PM 40.0660 -107.9160 277° West 422 486 34,000  Level FlightAware
06:55PM 40.0720 -108.0080 275° West 422 486 34,000  Level FlightAware
06:55PM 40.0760 -108.1080 273° West 425 489 34,000  Level FlightAware
06:56PM 40.0810 -108.2160 273° West 427 491 34,000  Level FlightAware
06:57PM 40.0850 -108.3160 273° West 426 490 34,000  Level FlightAware
06:57PM 40.0890 -108.4100 273° West 425 489 34,000  Level FlightAware
06:58PM 40.0930 -108.5040 273° West 426 490 34,000  Level FlightAware
06:59PM 40.0980 -108.6140 273° West 425 489 34,000  Level FlightAware
06:59PM 40.1030 -108.7350 273° West 419 482 34,000  Level FlightAware
07:00PM 40.1060 -108.8290 272° West 422 486 34,000  Level FlightAware
07:01PM 40.1110 -108.9380 273° West 426 490 34,000  Level FlightAware
07:01PM 40.1150 -109.0550 273° West 424 488 34,000  Level FlightAware
07:02PM 40.1190 -109.1710 273° West 422 486 34,000  Level FlightAware
07:03PM 40.1230 -109.2650 273° West 423 487 34,000 -480 Level FlightAware
07:04PM 40.1270 -109.3810 273° West 436 502 33,400 -960 Descending FlightAware
07:04PM 40.1300 -109.4740 272° West 436 502 32,800 -1,020 Descending FlightAware
07:05PM 40.1340 -109.5820 273° West 436 502 32,100 -1,080 Descending FlightAware
07:06PM 40.1380 -109.7080 272° West 443 510 31,300 -1,020 Descending FlightAware
07:06PM 40.1400 -109.7960 272° West 448 516 30,800 -1,020 Descending FlightAware
07:07PM 40.1440 -109.9150 273° West 449 517 30,000 -540 Descending FlightAware
07:08PM 40.1480 -110.0610 272° West 447 514 30,000  Level FlightAware
07:09PM 40.1510 -110.1760 272° West 447 514 30,000  Level FlightAware
07:09PM 40.1500 -110.2770 269° West 446 513 30,000  Level FlightAware
07:10PM 40.1480 -110.4060 269° West 445 512 30,000  Level FlightAware
07:10PM 40.1470 -110.4660 269° West 443 510 30,000 -360 Level FlightAware
07:11PM 40.1460 -110.6210 270° West 436 502 29,500 -1,380 Descending FlightAware
07:12PM 40.1440 -110.7430 269° West 437 503 27,600 -2,580 Descending FlightAware
07:13PM 40.1430 -110.9010 270° West 438 504 25,000 -1,440 Descending FlightAware
07:14PM 40.1410 -111.0140 269° West 438 504 25,000  Level FlightAware
07:15PM 40.1400 -111.0950 269° West 438 504 25,000  Level FlightAware
07:15PM 40.1390 -111.1780 269° West 438 504 25,000  Level FlightAware
07:16PM 40.1370 -111.3160 269° West 438 504 25,000  Level FlightAware
07:17PM 40.1360 -111.3970 269° West 438 504 25,000 -6,240 Level FlightAware
07:18PM 40.1371 -111.5620 271° West 338 389 16,000 -9,180 Descending FlightAware ADS-B
07:18PM 40.1422 -111.5770 294° West 336 387 16,000 -1,080 Level FlightAware ADS-B
07:18PM 40.1635 -111.6370 295° West 329 379 15,300 -1,500 Descending FlightAware ADS-B
07:19PM 40.1959 -111.7060 302° West 330 380 14,200 -1,560 Descending FlightAware ADS-B
07:20PM 40.2326 -111.7540 315° West 323 372 13,400 -1,200 Descending FlightAware ADS-B
07:20PM 40.2650 -111.7970 315° West 311 358 12,900 -600 Descending FlightAware ADS-B
07:20PM 40.2872 -111.8260 315° West 290 334 12,900 -600 Level FlightAware ADS-B
07:21PM 40.3160 -111.8580 320° Northwest 277 319 12,400 -1,320 Descending FlightAware
07:21PM 40.3245 -111.8670 321° Northwest 277 319 12,100 -1,740 Descending FlightAware ADS-B
07:22PM 40.3555 -111.8980 323° Northwest 277 319 11,300 -1,320 Descending FlightAware ADS-B
07:22PM 40.3723 -111.9150 322° Northwest 274 315 11,100 -1,080 Descending FlightAware ADS-B
07:22PM 40.3856 -111.9270 326° Northwest 269 310 10,800 -1,440 Descending FlightAware ADS-B
07:22PM 40.3961 -111.9310 344° North 274 315 10,600 -1,260 Descending FlightAware ADS-B
07:23PM 40.4459 -111.9360 356° North 274 315 9,800 -1,200 Descending FlightAware ADS-B
07:23PM 40.4702 -111.9380 356° North 262 302 9,400 -1,020 Descending FlightAware ADS-B
07:24PM 40.4898 -111.9400 356° North 246 283 9,200 -600 Descending FlightAware ADS-B
07:24PM 40.5078 -111.9420 355° North 241 277 9,100 -540 Descending FlightAware ADS-B
07:24PM 40.5146 -111.9430 354° North 235 270 9,000 -300 Descending FlightAware ADS-B
07:24PM 40.5317 -111.9450 355° North 224 258 9,000 -600 Level FlightAware ADS-B
07:24PM 40.5380 -111.9460 353° North 224 258 8,800 -1,620 Descending FlightAware ADS-B
07:24PM 40.5469 -111.9470 355° North 225 259 8,600 -1,380 Descending FlightAware ADS-B
07:25PM 40.5605 -111.9480 357° North 226 260 8,300 -1,500 Descending FlightAware ADS-B
07:25PM 40.5759 -111.9500 354° North 225 259 7,900 -1,500 Descending FlightAware ADS-B
07:25PM 40.5982 -111.9530 354° North 216 249 7,400 -1,320 Descending FlightAware ADS-B
07:26PM 40.6137 -111.9550 354° North 209 241 7,100 -960 Descending FlightAware ADS-B
07:26PM 40.6236 -111.9560 356° North 201 231 7,000 -960 Descending FlightAware ADS-B
07:26PM 40.6377 -111.9570 357° North 194 223 6,700 -1,140 Descending FlightAware ADS-B
07:26PM 40.6525 -111.9590 354° North 185 213 6,400 -960 Descending FlightAware ADS-B
07:27PM 40.6653 -111.9610 353° North 170 196 6,200 -840 Descending FlightAware ADS-B
07:27PM 40.6794 -111.9620 357° North 151 174 5,900 -780 Descending FlightAware ADS-B
07:27PM 40.6929 -111.9640 354° North 148 170 5,700 -720 Descending FlightAware ADS-B
07:27PM 40.7039 -111.9650 356° North 154 177 5,500 -840 Descending FlightAware ADS-B
07:28PM 40.7177 -111.9670 354° North 149 171 5,200 -840 Descending FlightAware ADS-B
07:28PM 40.7463 -111.9700 355° North 150 173 4,700 -780 Descending FlightAware ADS-B
07:29PM 40.7571 -111.9710 356° North 150 173 4,500 -780 Descending FlightAware ADS-B
07:29PM 40.7692 -111.9720 356° North 154 177 4,300 -720 Descending FlightAware ADS-B
07:31PM 40.8010 -111.9800 343° North 32 37 -1,800 Descending FlightAware